createdAt,value
2018-09-06T00:00:20.264Z,20.90
2018-09-06T00:02:49.413Z,17.07
2018-09-06T00:05:18.827Z,19.50
2018-09-06T00:07:48.049Z,18.63
2018-09-06T00:10:17.505Z,18.97
2018-09-06T00:12:46.865Z,25.50
2018-09-06T00:15:16.171Z,29.97
2018-09-06T00:17:45.822Z,25.60
2018-09-06T00:20:15.445Z,22.10
2018-09-06T00:22:44.718Z,26.00
2018-09-06T00:25:14.102Z,25.70
2018-09-06T00:27:43.426Z,28.63
2018-09-06T00:30:12.696Z,26.60
2018-09-06T00:32:42.059Z,29.67
2018-09-06T00:35:11.320Z,20.37
2018-09-06T00:37:40.885Z,24.97
2018-09-06T00:40:10.936Z,20.83
2018-09-06T00:42:40.581Z,22.60
2018-09-06T00:45:09.733Z,32.43
2018-09-06T00:47:39.221Z,28.37
2018-09-06T00:50:13.537Z,30.77
2018-09-06T00:52:42.772Z,27.53
2018-09-06T00:55:12.067Z,26.43
2018-09-06T00:57:41.127Z,26.87
2018-09-06T01:00:10.460Z,29.97
2018-09-06T01:02:39.751Z,25.63
2018-09-06T01:05:09.226Z,33.33
2018-09-06T01:07:38.462Z,40.57
2018-09-06T01:10:08.283Z,25.17
2018-09-06T01:12:37.499Z,27.73
2018-09-06T01:15:06.931Z,32.20
2018-09-06T01:17:36.137Z,28.63
2018-09-06T01:20:05.715Z,23.03
2018-09-06T01:22:35.364Z,18.57
2018-09-06T01:25:04.487Z,19.13
2018-09-06T01:27:33.936Z,15.40
2018-09-06T01:30:03.500Z,19.30
2018-09-06T01:32:32.915Z,19.40
2018-09-06T01:35:02.072Z,17.33
2018-09-06T01:37:31.717Z,15.37
2018-09-06T01:40:00.900Z,18.03
2018-09-06T01:42:30.551Z,18.87
2018-09-06T01:45:00.059Z,19.00
2018-09-06T01:47:30.283Z,16.73
2018-09-06T01:49:59.876Z,19.33
2018-09-06T01:52:29.197Z,20.07
2018-09-06T01:54:58.663Z,18.73
2018-09-06T01:57:28.043Z,22.30
2018-09-06T01:59:57.508Z,19.70
2018-09-06T02:02:26.648Z,18.23
2018-09-06T02:04:55.881Z,21.17
2018-09-06T02:07:25.169Z,18.93
2018-09-06T02:09:54.489Z,17.93
2018-09-06T02:12:23.775Z,16.47
2018-09-06T02:14:53.459Z,18.47
2018-09-06T02:17:22.640Z,19.53
2018-09-06T02:19:51.755Z,19.37
2018-09-06T02:22:20.895Z,16.33
2018-09-06T02:24:50.242Z,15.67
2018-09-06T02:27:19.675Z,19.93
2018-09-06T02:29:49.145Z,16.07
2018-09-06T02:32:18.355Z,15.17
2018-09-06T02:34:47.575Z,14.70
2018-09-06T02:37:16.971Z,20.83
2018-09-06T02:39:46.699Z,17.67
2018-09-06T02:42:15.839Z,16.20
2018-09-06T02:44:45.184Z,15.77
2018-09-06T02:47:14.189Z,16.83
2018-09-06T02:50:48.128Z,15.90
2018-09-06T02:53:17.773Z,17.93
2018-09-06T02:55:47.192Z,17.10
2018-09-06T02:58:16.748Z,17.47
2018-09-06T03:00:46.121Z,17.37
2018-09-06T03:03:15.127Z,18.43
2018-09-06T03:05:44.595Z,23.27
2018-09-06T03:08:13.864Z,20.27
2018-09-06T03:10:44.428Z,25.73
2018-09-06T03:13:13.734Z,24.43
2018-09-06T03:15:43.027Z,23.60
2018-09-06T03:18:12.390Z,22.43
2018-09-06T03:20:41.825Z,28.23
2018-09-06T03:23:11.116Z,25.07
2018-09-06T03:25:40.668Z,27.43
2018-09-06T03:28:09.956Z,22.17
2018-09-06T03:30:39.441Z,22.13
2018-09-06T03:33:09.141Z,20.73
2018-09-06T03:35:38.372Z,18.57
2018-09-06T03:38:08.074Z,19.07
2018-09-06T03:40:37.177Z,19.67
2018-09-06T03:43:06.560Z,21.33
2018-09-06T03:45:35.665Z,19.73
2018-09-06T03:48:05.158Z,21.43
2018-09-06T03:50:34.180Z,21.90
2018-09-06T03:53:04.360Z,24.27
2018-09-06T03:55:33.557Z,23.23
2018-09-06T03:58:02.885Z,19.57
2018-09-06T04:00:32.291Z,21.30
2018-09-06T04:03:01.468Z,21.97
2018-09-06T04:05:30.853Z,21.00
2018-09-06T04:07:59.998Z,21.40
2018-09-06T04:10:29.423Z,19.63
2018-09-06T04:12:58.962Z,26.27
2018-09-06T04:15:28.199Z,23.73
2018-09-06T04:17:57.576Z,24.23
2018-09-06T04:20:26.947Z,25.27
2018-09-06T04:22:56.773Z,22.63
2018-09-06T04:25:26.277Z,23.50
2018-09-06T04:27:55.705Z,24.57
2018-09-06T04:30:25.089Z,24.63
2018-09-06T04:32:54.575Z,22.87
2018-09-06T04:35:23.771Z,25.27
2018-09-06T04:37:53.233Z,26.17
2018-09-06T04:40:22.541Z,27.20
2018-09-06T04:42:51.793Z,29.83
2018-09-06T04:45:21.092Z,30.23
2018-09-06T04:47:50.603Z,24.40
2018-09-06T04:50:20.217Z,26.70
2018-09-06T04:52:49.568Z,28.40
2018-09-06T04:55:19.108Z,30.87
2018-09-06T04:57:48.452Z,28.50
2018-09-06T05:00:17.717Z,29.80
2018-09-06T05:02:46.832Z,31.63
2018-09-06T05:05:16.112Z,36.40
2018-09-06T05:07:45.410Z,38.60
2018-09-06T05:10:14.793Z,29.37
2018-09-06T05:12:43.984Z,30.63
2018-09-06T05:15:13.157Z,33.83
2018-09-06T05:17:42.608Z,35.47
2018-09-06T05:20:11.841Z,38.83
2018-09-06T05:22:41.209Z,36.97
2018-09-06T05:25:10.640Z,32.80
2018-09-06T05:27:40.250Z,36.90
2018-09-06T05:30:09.741Z,37.83
2018-09-06T05:32:38.984Z,32.10
2018-09-06T05:35:08.522Z,32.77
2018-09-06T05:37:37.714Z,40.37
2018-09-06T05:40:07.110Z,32.63
2018-09-06T05:42:36.471Z,29.43
2018-09-06T05:45:05.991Z,32.33
2018-09-06T05:47:35.556Z,30.70
2018-09-06T05:50:05.378Z,32.57
2018-09-06T05:52:34.789Z,32.53
2018-09-06T05:55:04.819Z,33.30
2018-09-06T05:57:34.113Z,27.57
2018-09-06T06:00:07.681Z,26.80
2018-09-06T06:02:36.917Z,26.63
2018-09-06T06:05:06.486Z,24.80
2018-09-06T06:07:46.344Z,23.80
2018-09-06T06:10:15.916Z,24.37
2018-09-06T06:12:45.217Z,24.97
2018-09-06T06:15:14.492Z,27.50
2018-09-06T06:17:43.620Z,22.97
2018-09-06T06:20:13.116Z,26.17
2018-09-06T06:22:42.703Z,27.07
2018-09-06T06:25:12.048Z,25.97
2018-09-06T06:27:42.074Z,25.07
2018-09-06T06:30:11.140Z,22.97
2018-09-06T06:32:40.756Z,23.87
2018-09-06T06:35:10.172Z,22.97
2018-09-06T06:37:39.406Z,25.13
2018-09-06T06:40:08.732Z,21.53
2018-09-06T06:42:38.048Z,21.57
2018-09-06T06:45:07.620Z,21.43
2018-09-06T06:47:36.935Z,22.57
2018-09-06T06:50:06.188Z,21.30
2018-09-06T06:52:35.407Z,22.17
2018-09-06T06:55:04.452Z,21.00
2018-09-06T06:57:33.763Z,20.97
2018-09-06T07:00:03.175Z,23.33
2018-09-06T07:02:32.417Z,22.10
2018-09-06T07:05:01.680Z,21.80
2018-09-06T07:07:31.300Z,21.47
2018-09-06T07:10:00.778Z,21.57
2018-09-06T07:12:30.172Z,24.23
2018-09-06T07:14:59.948Z,24.30
2018-09-06T07:17:29.424Z,20.33
2018-09-06T07:19:59.581Z,21.17
2018-09-06T07:22:29.008Z,20.60
2018-09-06T07:24:58.236Z,22.47
2018-09-06T07:27:27.520Z,28.40
2018-09-06T07:29:56.916Z,20.27
2018-09-06T07:32:26.302Z,24.80
2018-09-06T07:34:55.708Z,36.20
2018-09-06T07:37:25.219Z,33.03
2018-09-06T07:39:54.808Z,37.40
2018-09-06T07:42:24.008Z,33.93
2018-09-06T07:44:53.624Z,26.97
2018-09-06T07:47:23.518Z,21.07
2018-09-06T07:49:52.856Z,22.17
2018-09-06T07:52:21.914Z,22.13
2018-09-06T07:54:51.120Z,24.10
2018-09-06T07:57:20.318Z,24.50
2018-09-06T07:59:49.812Z,25.67
2018-09-06T08:02:18.898Z,24.13
2018-09-06T08:04:48.316Z,22.37
2018-09-06T08:07:17.651Z,24.57
2018-09-06T08:09:46.971Z,20.60
2018-09-06T08:12:16.478Z,21.37
2018-09-06T08:14:45.923Z,22.00
2018-09-06T08:17:15.147Z,22.67
2018-09-06T08:19:44.580Z,21.70
2018-09-06T08:22:13.751Z,21.57
2018-09-06T08:24:42.910Z,21.13
2018-09-06T08:27:12.067Z,22.63
2018-09-06T08:29:41.953Z,24.00
2018-09-06T08:32:11.243Z,19.80
2018-09-06T08:34:40.488Z,19.73
2018-09-06T08:37:10.489Z,20.87
2018-09-06T08:39:39.723Z,22.60
2018-09-06T08:42:09.045Z,20.87
2018-09-06T08:44:38.232Z,17.43
2018-09-06T08:47:07.761Z,20.30
2018-09-06T08:49:36.972Z,17.87
2018-09-06T08:52:06.000Z,17.33
2018-09-06T08:54:35.319Z,15.43
2018-09-06T08:57:04.684Z,14.80
2018-09-06T08:59:33.945Z,14.27
2018-09-06T09:02:07.415Z,12.68
2018-09-06T09:04:36.434Z,14.83
2018-09-06T09:07:05.582Z,11.93
2018-09-06T09:09:34.604Z,12.98
2018-09-06T09:12:03.941Z,13.28
2018-09-06T09:14:33.246Z,13.40
2018-09-06T09:17:02.399Z,13.30
2018-09-06T09:19:31.692Z,12.20
2018-09-06T09:22:00.855Z,13.22
2018-09-06T09:24:30.281Z,13.03
2018-09-06T09:26:59.383Z,12.65
2018-09-06T09:29:29.403Z,10.25
2018-09-06T09:31:58.704Z,11.50
2018-09-06T09:34:28.046Z,12.03
2018-09-06T09:36:57.589Z,10.50
2018-09-06T09:39:27.351Z,10.72
2018-09-06T09:41:57.321Z,11.75
2018-09-06T09:44:26.493Z,10.05
2018-09-06T09:49:24.688Z,7.65
2018-09-06T09:51:53.976Z,8.68
2018-09-06T09:54:23.104Z,8.90
2018-09-06T09:56:52.410Z,7.80
2018-09-06T09:59:21.467Z,7.85
2018-09-06T10:01:55.912Z,7.65
2018-09-06T10:04:30.148Z,6.75
2018-09-06T10:07:05.024Z,7.83
2018-09-06T10:09:34.395Z,7.47
2018-09-06T10:12:03.654Z,8.60
2018-09-06T10:14:33.021Z,9.18
2018-09-06T10:17:02.126Z,9.43
2018-09-06T10:19:31.444Z,11.48
2018-09-06T10:22:00.731Z,9.63
2018-09-06T10:24:29.829Z,9.28
2018-09-06T10:26:59.296Z,8.88
2018-09-06T10:29:28.851Z,8.28
2018-09-06T10:31:58.285Z,8.30
2018-09-06T10:34:27.577Z,7.12
2018-09-06T10:36:57.535Z,7.40
2018-09-06T10:39:27.151Z,8.53
2018-09-06T10:41:56.139Z,6.78
2018-09-06T10:44:25.323Z,7.12
2018-09-06T10:46:54.479Z,6.80
2018-09-06T10:49:23.633Z,7.42
2018-09-06T10:51:53.376Z,7.05
2018-09-06T10:54:22.594Z,6.47
2018-09-06T10:56:51.736Z,7.17
2018-09-06T10:59:21.134Z,6.17
2018-09-06T11:01:50.552Z,6.72
2018-09-06T11:04:19.949Z,7.78
2018-09-06T11:06:49.496Z,6.87
2018-09-06T11:09:18.898Z,6.67
2018-09-06T11:11:48.296Z,6.33
2018-09-06T11:14:17.488Z,6.85
2018-09-06T11:16:46.773Z,6.67
2018-09-06T11:19:15.819Z,6.60
2018-09-06T11:21:45.386Z,6.50
2018-09-06T11:24:14.399Z,7.05
2018-09-06T11:26:43.542Z,7.35
2018-09-06T11:29:12.633Z,8.20
2018-09-06T11:31:41.911Z,6.80
2018-09-06T11:34:11.372Z,6.92
2018-09-06T11:36:40.740Z,7.35
2018-09-06T11:39:11.406Z,6.12
2018-09-06T11:41:40.986Z,6.67
2018-09-06T11:44:10.065Z,7.00
2018-09-06T11:46:39.466Z,6.10
2018-09-06T11:49:08.666Z,6.28
2018-09-06T11:51:37.928Z,7.75
2018-09-06T11:54:07.082Z,6.53
2018-09-06T11:56:35.862Z,6.65
2018-09-06T11:59:04.552Z,7.05
2018-09-06T12:01:34.153Z,6.78
2018-09-06T12:04:03.154Z,7.75
2018-09-06T12:06:32.316Z,7.03
2018-09-06T12:09:01.471Z,9.28
2018-09-06T12:11:30.747Z,6.67
2018-09-06T12:14:00.012Z,6.45
2018-09-06T12:16:29.134Z,9.28
2018-09-06T12:18:58.422Z,7.12
2018-09-06T12:21:27.500Z,7.70
2018-09-06T12:23:57.063Z,7.33
2018-09-06T12:26:26.124Z,7.30
2018-09-06T12:28:55.337Z,6.95
2018-09-06T12:31:24.713Z,10.13
2018-09-06T12:33:54.411Z,8.28
2018-09-06T12:36:23.656Z,10.03
2018-09-06T12:38:53.288Z,7.45
2018-09-06T12:41:22.805Z,7.78
2018-09-06T12:43:52.287Z,8.48
2018-09-06T12:46:22.035Z,7.00
2018-09-06T12:48:51.258Z,8.85
2018-09-06T12:51:20.488Z,8.43
2018-09-06T12:53:49.508Z,7.80
2018-09-06T12:56:19.158Z,7.55
2018-09-06T12:58:48.617Z,8.13
2018-09-06T13:01:17.772Z,21.97
2018-09-06T13:03:47.018Z,13.78
2018-09-06T13:06:16.205Z,23.10
2018-09-06T13:08:45.336Z,10.65
2018-09-06T13:11:14.934Z,9.35
2018-09-06T13:13:44.793Z,19.00
2018-09-06T13:16:14.275Z,12.30
2018-09-06T13:18:43.672Z,13.43
2018-09-06T13:21:13.206Z,11.85
2018-09-06T13:23:42.432Z,10.93
2018-09-06T13:26:11.597Z,10.35
2018-09-06T13:28:40.926Z,11.12
2018-09-06T13:31:10.024Z,8.50
2018-09-06T13:33:39.363Z,10.13
2018-09-06T13:36:08.369Z,9.48
2018-09-06T13:38:37.416Z,9.23
2018-09-06T13:41:06.708Z,8.13
2018-09-06T13:43:36.088Z,11.33
2018-09-06T13:46:05.520Z,9.18
2018-09-06T13:48:34.489Z,8.65
2018-09-06T13:51:03.814Z,10.43
2018-09-06T13:53:33.001Z,10.58
2018-09-06T13:56:02.597Z,12.33
2018-09-06T13:58:31.972Z,12.10
2018-09-06T14:01:01.281Z,9.63
2018-09-06T14:03:30.621Z,11.18
2018-09-06T14:06:01.252Z,19.35
2018-09-06T14:08:33.571Z,21.70
2018-09-06T14:11:02.901Z,19.25
2018-09-06T14:13:32.801Z,23.22
2018-09-06T14:16:02.269Z,20.82
2018-09-06T14:18:32.224Z,18.10
2018-09-06T14:21:01.643Z,12.30
2018-09-06T14:23:31.168Z,9.73
2018-09-06T14:26:00.473Z,8.80
2018-09-06T14:28:33.906Z,9.83
2018-09-06T14:31:04.938Z,9.38
2018-09-06T14:33:34.472Z,9.85
2018-09-06T14:36:04.113Z,9.20
2018-09-06T14:38:34.670Z,8.88
2018-09-06T14:41:04.397Z,9.25
2018-09-06T14:43:35.145Z,12.10
2018-09-06T14:46:04.965Z,10.05
2018-09-06T14:48:34.699Z,10.00
2018-09-06T14:51:05.218Z,9.83
2018-09-06T14:53:34.400Z,14.73
2018-09-06T14:56:03.735Z,9.93
2018-09-06T14:58:33.569Z,13.78
2018-09-06T15:01:02.721Z,12.93
2018-09-06T15:03:32.211Z,11.40
2018-09-06T15:06:01.526Z,12.95
2018-09-06T15:08:30.859Z,15.10
2018-09-06T15:11:00.567Z,12.23
2018-09-06T15:13:30.576Z,12.23
2018-09-06T15:16:00.474Z,10.72
2018-09-06T15:18:29.939Z,11.83
2018-09-06T15:20:59.486Z,16.37
2018-09-06T15:23:30.023Z,12.07
2018-09-06T15:25:59.597Z,12.60
2018-09-06T15:28:28.881Z,13.95
2018-09-06T15:30:58.395Z,15.10
2018-09-06T15:33:27.782Z,12.50
2018-09-06T15:35:59.017Z,13.20
2018-09-06T15:38:28.365Z,15.30
2018-09-06T15:40:58.306Z,16.27
2018-09-06T15:43:27.778Z,14.77
2018-09-06T15:45:58.696Z,15.45
2018-09-06T15:48:28.137Z,16.17
2018-09-06T15:51:03.543Z,15.18
2018-09-06T15:53:39.787Z,14.07
2018-09-06T15:56:10.318Z,13.17
2018-09-06T15:58:41.639Z,14.47
2018-09-06T16:01:13.592Z,13.88
2018-09-06T16:03:44.465Z,25.08
2018-09-06T16:06:17.428Z,24.98
2018-09-06T16:08:47.684Z,23.42
2018-09-06T16:11:22.146Z,23.45
2018-09-06T16:13:51.774Z,23.67
2018-09-06T16:16:28.470Z,29.40
2018-09-06T16:18:58.660Z,33.53
2018-09-06T16:21:32.884Z,29.87
2018-09-06T16:24:04.133Z,32.93
2018-09-06T16:26:37.438Z,33.55
2018-09-06T16:29:10.796Z,29.57
2018-09-06T16:31:41.256Z,30.95
2018-09-06T16:34:12.018Z,26.10
2018-09-06T16:36:41.927Z,20.92
2018-09-06T16:39:12.254Z,24.02
2018-09-06T16:41:42.033Z,23.60
2018-09-06T16:44:11.566Z,25.03
2018-09-06T16:46:40.912Z,19.30
2018-09-06T16:49:11.122Z,26.52
2018-09-06T16:51:41.621Z,26.12
2018-09-06T16:54:12.029Z,35.67
2018-09-06T16:56:43.488Z,33.73
2018-09-06T16:59:13.749Z,41.83
2018-09-06T17:01:44.342Z,35.93
2018-09-06T17:04:13.747Z,33.47
2018-09-06T17:06:42.905Z,29.07
2018-09-06T17:09:14.046Z,24.30
2018-09-06T17:11:44.469Z,16.00
2018-09-06T17:14:16.251Z,14.93
2018-09-06T17:16:46.219Z,16.70
2018-09-06T17:19:16.112Z,15.30
2018-09-06T17:21:45.436Z,18.30
2018-09-06T17:24:16.251Z,24.27
2018-09-06T17:26:47.092Z,27.23
2018-09-06T17:29:20.680Z,22.40
2018-09-06T17:31:52.016Z,23.20
2018-09-06T17:34:25.263Z,24.63
2018-09-06T17:36:54.573Z,25.40
2018-09-06T17:39:27.466Z,18.20
2018-09-06T17:41:57.645Z,24.87
2018-09-06T17:44:26.799Z,20.70
2018-09-06T17:47:03.365Z,20.80
2018-09-06T17:49:32.563Z,20.53
2018-09-06T17:52:01.677Z,22.27
2018-09-06T17:54:31.005Z,18.57
2018-09-06T17:57:00.647Z,21.90
2018-09-06T17:59:30.052Z,27.50
2018-09-06T18:01:59.234Z,39.87
2018-09-06T18:04:28.505Z,43.90
2018-09-06T18:06:57.632Z,39.70
2018-09-06T18:09:26.870Z,35.77
2018-09-06T18:11:56.530Z,28.90
2018-09-06T18:14:25.783Z,56.43
2018-09-06T18:16:57.027Z,49.30
2018-09-06T18:19:39.721Z,38.17
2018-09-06T18:22:25.846Z,33.03
2018-09-06T18:24:55.425Z,32.23
2018-09-06T18:27:25.243Z,35.20
2018-09-06T18:29:55.161Z,39.57
2018-09-06T18:32:24.920Z,33.40
2018-09-06T18:34:54.403Z,32.37
2018-09-06T18:37:24.844Z,30.77
2018-09-06T18:39:55.065Z,35.43
2018-09-06T18:42:24.328Z,34.23
2018-09-06T18:44:53.725Z,36.67
2018-09-06T18:47:22.858Z,37.60
2018-09-06T18:49:53.267Z,29.40
2018-09-06T18:52:23.370Z,28.93
2018-09-06T18:54:55.641Z,34.13
2018-09-06T18:57:26.069Z,31.93
2018-09-06T18:59:55.383Z,27.83
2018-09-06T19:02:24.840Z,29.20
2018-09-06T19:04:54.784Z,32.27
2018-09-06T19:07:24.618Z,32.37
2018-09-06T19:09:54.563Z,39.13
2018-09-06T19:12:24.310Z,38.73
2018-09-06T19:14:54.207Z,30.07
2018-09-06T19:17:23.994Z,34.47
2018-09-06T19:19:53.847Z,31.27
2018-09-06T19:22:23.664Z,29.40
2018-09-06T19:24:53.326Z,26.93
2018-09-06T19:27:22.725Z,35.23
2018-09-06T19:29:52.932Z,33.20
2018-09-06T19:32:22.379Z,34.67
2018-09-06T19:34:51.999Z,26.03
2018-09-06T19:37:21.366Z,34.10
2018-09-06T19:39:50.946Z,31.70
2018-09-06T19:42:20.531Z,37.00
2018-09-06T19:44:49.866Z,33.37
2018-09-06T19:47:19.581Z,33.87
2018-09-06T19:49:49.908Z,31.83
2018-09-06T19:52:21.534Z,29.97
2018-09-06T19:54:51.734Z,42.30
2018-09-06T19:57:22.719Z,29.40
2018-09-06T19:59:53.138Z,27.93
2018-09-06T20:02:23.561Z,29.20
2018-09-06T20:04:54.992Z,30.37
2018-09-06T20:07:24.797Z,28.10
2018-09-06T20:09:54.675Z,32.43
2018-09-06T20:12:25.824Z,31.90
2018-09-06T20:14:55.340Z,31.20
2018-09-06T20:17:25.109Z,25.90
2018-09-06T20:19:55.252Z,32.63
2018-09-06T20:22:25.175Z,29.20
2018-09-06T20:24:55.744Z,39.23
2018-09-06T20:27:24.924Z,45.03
2018-09-06T20:29:54.590Z,40.37
2018-09-06T20:32:23.778Z,40.67
2018-09-06T20:34:53.332Z,32.63
2018-09-06T20:37:22.499Z,37.40
2018-09-06T20:39:51.876Z,32.73
2018-09-06T20:42:21.445Z,33.43
2018-09-06T20:44:50.584Z,30.03
2018-09-06T20:47:19.969Z,30.60
2018-09-06T20:49:50.274Z,33.03
2018-09-06T20:52:19.740Z,36.27
2018-09-06T20:54:49.009Z,32.77
2018-09-06T20:57:18.485Z,32.87
2018-09-06T20:59:47.678Z,28.77
2018-09-06T21:02:22.533Z,32.93
2018-09-06T21:04:52.021Z,31.90
2018-09-06T21:07:21.144Z,38.27
2018-09-06T21:09:50.501Z,33.87
2018-09-06T21:12:20.185Z,26.30
2018-09-06T21:14:49.361Z,28.87
2018-09-06T21:17:18.999Z,30.20
2018-09-06T21:19:48.220Z,31.70
2018-09-06T21:22:17.254Z,26.93
2018-09-06T21:24:46.929Z,29.93
2018-09-06T21:27:16.474Z,29.97
2018-09-06T21:29:45.704Z,27.17
2018-09-06T21:32:14.904Z,25.80
2018-09-06T21:34:44.377Z,32.10
2018-09-06T21:37:13.471Z,24.37
2018-09-06T21:39:42.829Z,31.17
2018-09-06T21:42:12.001Z,29.07
2018-09-06T21:44:41.196Z,28.10
2018-09-06T21:47:10.783Z,25.90
2018-09-06T21:49:40.100Z,25.47
2018-09-06T21:52:09.251Z,29.33
2018-09-06T21:54:38.741Z,28.33
2018-09-06T21:57:07.959Z,27.87
2018-09-06T21:59:37.464Z,29.67
2018-09-06T22:02:11.115Z,25.10
2018-09-06T22:04:40.771Z,23.40
2018-09-06T22:07:10.043Z,22.87
2018-09-06T22:09:39.538Z,23.63
2018-09-06T22:12:13.116Z,26.20
2018-09-06T22:14:42.465Z,26.97
2018-09-06T22:17:12.157Z,24.60
2018-09-06T22:19:41.433Z,36.77
2018-09-06T22:22:10.760Z,34.00
2018-09-06T22:24:40.371Z,31.33
2018-09-06T22:27:09.635Z,31.23
2018-09-06T22:29:39.760Z,32.87
2018-09-06T22:32:08.898Z,32.17
2018-09-06T22:34:38.428Z,27.67
2018-09-06T22:37:07.843Z,30.73
2018-09-06T22:39:37.155Z,30.07
2018-09-06T22:42:07.556Z,38.50
2018-09-06T22:44:36.839Z,31.50
2018-09-06T22:47:06.176Z,33.87
2018-09-06T22:49:35.458Z,32.83
2018-09-06T22:52:05.171Z,36.50
2018-09-06T22:54:34.230Z,31.97
2018-09-06T22:57:03.755Z,28.30
2018-09-06T22:59:33.097Z,29.33
2018-09-06T23:02:02.660Z,25.57
2018-09-06T23:04:31.985Z,27.93
2018-09-06T23:07:01.433Z,25.73
2018-09-06T23:09:30.806Z,26.57
2018-09-06T23:12:00.339Z,23.90
2018-09-06T23:14:29.751Z,26.27
2018-09-06T23:16:59.097Z,30.07
2018-09-06T23:19:29.012Z,26.57
2018-09-06T23:21:58.523Z,28.03
2018-09-06T23:24:28.179Z,27.30
2018-09-06T23:26:57.400Z,33.23
2018-09-06T23:29:26.862Z,31.30
2018-09-06T23:31:56.338Z,31.13
2018-09-06T23:34:29.418Z,36.77
2018-09-06T23:36:58.694Z,38.50
2018-09-06T23:39:27.905Z,33.17
2018-09-06T23:41:57.172Z,38.27
2018-09-06T23:44:26.757Z,42.23
2018-09-06T23:46:56.791Z,42.77
2018-09-06T23:49:26.165Z,44.53
2018-09-06T23:51:55.300Z,46.07
2018-09-06T23:54:24.734Z,41.73
2018-09-06T23:56:54.203Z,38.63
2018-09-06T23:59:23.816Z,39.37
